Maybe — 2ASG3 — position and weather

sailwx.info

Track history (hours):
 
Tides and Currents Weather Stations Pressure Air Temp Water Temp Dewpoint Dewpoint Depression Visibility Wind Speed Wind Dir Waves Ship Positions

Maybe

Last reported at 2020-Mar-08 00:06 UTC. Time now 2020-Mar-31 06:31 UTC.
Position N 39°03' W 009°53'.
Warning: this ship's position is 23 days out of date.

Length 28 m.

Type: Pleasure craft. MMSI: 235062552.

Date/timePositionNaut miles runAvg speedWind from/ knotsBaromVisibWave heightAir tempDewpointWater temp
2020-Mar-08 00:06N 39°03' W 009°53'6 5.5
2020-Mar-07 23:00N 39°00' W 009°46'3 5.5
2020-Mar-07 22:30N 38°59' W 009°43'13 5.1
2020-Mar-07 20:00N 38°53' W 009°28'5 5.4
2020-Mar-07 19:00N 38°51' W 009°35'5 4.7
2020-Mar-07 17:59N 38°50' W 009°41'3 6.2
2020-Mar-07 17:30N 38°48' W 009°38'5 1.9
2020-Mar-07 14:59N 38°44' W 009°40'3 5.8
2020-Mar-07 14:30N 38°43' W 009°36'2 4.5
2020-Mar-07 14:00N 38°43' W 009°34'  
2020-Mar-03 02:53N 38°39' W 009°25'3 5.9
2020-Mar-03 02:23N 38°36' W 009°24'22 2.2
2020-Mar-02 16:27N 38°22' W 009°02'9 5.2
2020-Mar-02 14:38N 38°30' W 008°55'2 2.9
2020-Mar-02 14:00N 38°29' W 008°53'1 0.3
2020-Mar-02 11:57N 38°29' W 008°53'0 0.0
2020-Mar-02 10:30N 38°29' W 008°53'0 0.0
2020-Mar-02 09:21N 38°29' W 008°53'0 0.0
2020-Mar-02 08:30N 38°29' W 008°53'0 0.0
2020-Mar-02 03:19N 38°29' W 008°53'0 0.0
2020-Mar-02 01:55N 38°29' W 008°53'0 0.1
2020-Mar-02 01:28N 38°29' W 008°53'0 0.0
2020-Mar-02 00:28N 38°29' W 008°53'0 0.0
2020-Mar-01 23:58N 38°29' W 008°53'0 0.0
2020-Mar-01 18:18N 38°29' W 008°53'0 1.2
2020-Mar-01 17:59N 38°29' W 008°53'16 4.5
2020-Mar-01 14:30N 38°14' W 008°57'9 5.7
2020-Mar-01 13:00N 38°05' W 008°57'6 5.8
2020-Mar-01 12:00N 37°60' W 008°56'4 2.1
2020-Mar-01 10:01N 37°57' W 008°52'0 0.0
2020-Mar-01 06:58N 37°57' W 008°52'0 0.0
2020-Mar-01 06:28N 37°57' W 008°52'0 0.0
2020-Mar-01 04:28N 37°57' W 008°52'0 0.0
2020-Mar-01 03:28N 37°57' W 008°52'0 0.0
2020-Mar-01 02:28N 37°57' W 008°52'0 0.0
2020-Mar-01 01:28N 37°57' W 008°52'0 0.0
2020-Feb-29 22:28N 37°57' W 008°52'0 0.0
2020-Feb-29 21:58N 37°57' W 008°52'0 0.0
2020-Feb-29 20:28N 37°57' W 008°52'0 0.0
2020-Feb-29 17:28N 37°57' W 008°52'0 0.0
2020-Feb-29 16:58N 37°57' W 008°52'0 0.0
2020-Feb-29 14:58N 37°57' W 008°52'0 0.0
2020-Feb-29 14:28N 37°57' W 008°52'0 0.0
2020-Feb-29 13:58N 37°57' W 008°52'0 0.0
2020-Feb-29 13:28N 37°57' W 008°52'0 0.0
2020-Feb-29 12:58N 37°57' W 008°52'0 0.0
2020-Feb-29 11:58N 37°57' W 008°52'0 0.0
2020-Feb-29 10:55N 37°57' W 008°52'0 0.0
2020-Feb-29 09:58N 37°57' W 008°52'0 0.1
2020-Feb-29 08:58N 37°57' W 008°52'0 0.0
2020-Feb-29 08:28N 37°57' W 008°52'0 0.0
2020-Feb-29 06:28N 37°57' W 008°52'0 0.0
2020-Feb-29 05:58N 37°57' W 008°52'0 0.0
2020-Feb-29 02:28N 37°57' W 008°52'0 0.0
2020-Feb-29 01:28N 37°57' W 008°52'1 0.1
2020-Feb-28 20:30N 37°57' W 008°53'2 4.1
2020-Feb-28 20:00N 37°55' W 008°54'3 5.2
2020-Feb-28 19:30N 37°52' W 008°54'3 5.8
2020-Feb-28 19:00N 37°49' W 008°55'  
Track history (hours):
 
Tides and Currents Weather Stations Pressure Air Temp Water Temp Dewpoint Dewpoint Depression Visibility Wind Speed Wind Dir Waves Ship Positions

Maybe

Last reported at 2020-Mar-08 00:06 UTC. Time now 2020-Mar-31 06:31 UTC.
Position N 39°03' W 009°53'.
Warning: this ship's position is 23 days out of date.

Length 28 m.

Type: Pleasure craft. MMSI: 235062552.

Date/timePositionNaut miles runAvg speedWind from/ knotsBaromVisibWave heightAir tempDewpointWater temp
2020-Mar-08 00:06N 39°03' W 009°53'6 5.5
2020-Mar-07 23:00N 39°00' W 009°46'3 5.5
2020-Mar-07 22:30N 38°59' W 009°43'13 5.1
2020-Mar-07 20:00N 38°53' W 009°28'5 5.4
2020-Mar-07 19:00N 38°51' W 009°35'5 4.7
2020-Mar-07 17:59N 38°50' W 009°41'3 6.2
2020-Mar-07 17:30N 38°48' W 009°38'5 1.9
2020-Mar-07 14:59N 38°44' W 009°40'3 5.8
2020-Mar-07 14:30N 38°43' W 009°36'2 4.5
2020-Mar-07 14:00N 38°43' W 009°34'  
2020-Mar-03 02:53N 38°39' W 009°25'3 5.9
2020-Mar-03 02:23N 38°36' W 009°24'22 2.2
2020-Mar-02 16:27N 38°22' W 009°02'9 5.2
2020-Mar-02 14:38N 38°30' W 008°55'2 2.9
2020-Mar-02 14:00N 38°29' W 008°53'1 0.3
2020-Mar-02 11:57N 38°29' W 008°53'0 0.0
2020-Mar-02 10:30N 38°29' W 008°53'0 0.0
2020-Mar-02 09:21N 38°29' W 008°53'0 0.0
2020-Mar-02 08:30N 38°29' W 008°53'0 0.0
2020-Mar-02 03:19N 38°29' W 008°53'0 0.0
2020-Mar-02 01:55N 38°29' W 008°53'0 0.1
2020-Mar-02 01:28N 38°29' W 008°53'0 0.0
2020-Mar-02 00:28N 38°29' W 008°53'0 0.0
2020-Mar-01 23:58N 38°29' W 008°53'0 0.0
2020-Mar-01 18:18N 38°29' W 008°53'0 1.2
2020-Mar-01 17:59N 38°29' W 008°53'16 4.5
2020-Mar-01 14:30N 38°14' W 008°57'9 5.7
2020-Mar-01 13:00N 38°05' W 008°57'6 5.8
2020-Mar-01 12:00N 37°60' W 008°56'4 2.1
2020-Mar-01 10:01N 37°57' W 008°52'0 0.0
2020-Mar-01 06:58N 37°57' W 008°52'0 0.0
2020-Mar-01 06:28N 37°57' W 008°52'0 0.0
2020-Mar-01 04:28N 37°57' W 008°52'0 0.0
2020-Mar-01 03:28N 37°57' W 008°52'0 0.0
2020-Mar-01 02:28N 37°57' W 008°52'0 0.0
2020-Mar-01 01:28N 37°57' W 008°52'0 0.0
2020-Feb-29 22:28N 37°57' W 008°52'0 0.0
2020-Feb-29 21:58N 37°57' W 008°52'0 0.0
2020-Feb-29 20:28N 37°57' W 008°52'0 0.0
2020-Feb-29 17:28N 37°57' W 008°52'0 0.0
2020-Feb-29 16:58N 37°57' W 008°52'0 0.0
2020-Feb-29 14:58N 37°57' W 008°52'0 0.0
2020-Feb-29 14:28N 37°57' W 008°52'0 0.0
2020-Feb-29 13:58N 37°57' W 008°52'0 0.0
2020-Feb-29 13:28N 37°57' W 008°52'0 0.0
2020-Feb-29 12:58N 37°57' W 008°52'0 0.0
2020-Feb-29 11:58N 37°57' W 008°52'0 0.0
2020-Feb-29 10:55N 37°57' W 008°52'0 0.0
2020-Feb-29 09:58N 37°57' W 008°52'0 0.1
2020-Feb-29 08:58N 37°57' W 008°52'0 0.0
2020-Feb-29 08:28N 37°57' W 008°52'0 0.0
2020-Feb-29 06:28N 37°57' W 008°52'0 0.0
2020-Feb-29 05:58N 37°57' W 008°52'0 0.0
2020-Feb-29 02:28N 37°57' W 008°52'0 0.0
2020-Feb-29 01:28N 37°57' W 008°52'1 0.1
2020-Feb-28 20:30N 37°57' W 008°53'2 4.1
2020-Feb-28 20:00N 37°55' W 008°54'3 5.2
2020-Feb-28 19:30N 37°52' W 008°54'3 5.8
2020-Feb-28 19:00N 37°49' W 008°55'  

Dump ship's entire track history